This is the latest recevied weather packets stored in our database for station/object K7FRY. If no packets are shown the sender has not sent any weather packets the latest 10 day(s).
| Time | Temp. | Humidity | Pressure | Rain* | Wind** | Luminosity | Snow |
|---|---|---|---|---|---|---|---|
| 1778006539 | 20.56° C | 61% | 1013.5 hPa | 0 mm | - | 241 W/m² | - |
| 1778006235 | 20.56° C | 61% | 1013.3 hPa | 0 mm | - | 964 W/m² | - |
| 1778005933 | 20.56° C | 61% | 1013.5 hPa | 0 mm | - | 913 W/m² | - |
| 1778005629 | 20° C | 65% | 1013.3 hPa | 0 mm | - | 335 W/m² | - |
| 1778005326 | 19.44° C | 66% | 1013.5 hPa | 0 mm | - | 290 W/m² | - |
| 1778005023 | 20° C | 68% | 1013.9 hPa | 0 mm | - | 297 W/m² | - |
| 1778004721 | 19.44° C | 68% | 1013.8 hPa | 0 mm | - | 241 W/m² | - |
| 1778004416 | 18.89° C | 69% | 1013.8 hPa | 0 mm | - | 148 W/m² | - |
| 1778004114 | 19.44° C | 69% | 1013.8 hPa | 0 mm | - | 133 W/m² | - |
| 1778003809 | 19.44° C | 68% | 1014 hPa | 0 mm | - | 467 W/m² | - |
| 1778003506 | 19.44° C | 70% | 1013.7 hPa | 0 mm | - | 317 W/m² | - |
| 1778003203 | 18.89° C | 70% | 1014 hPa | 0 mm | - | 197 W/m² | - |
| 1778002899 | 18.89° C | 70% | 1014 hPa | 0 mm | - | 669 W/m² | - |
| 1778002596 | 18.33° C | 73% | 1013.9 hPa | 0 mm | - | 374 W/m² | - |
| 1778002292 | 17.78° C | 77% | 1013.9 hPa | 0 mm | - | 596 W/m² | - |
| 1778001990 | 17.22° C | 77% | 1014.2 hPa | 0 mm | - | 150 W/m² | - |
| 1778001687 | 17.22° C | 79% | 1013.9 hPa | 0 mm | - | 74 W/m² | - |
| 1778001381 | 17.22° C | 78% | 1014.2 hPa | 0 mm | - | 183 W/m² | - |
| 1778001079 | 17.22° C | 78% | 1014.2 hPa | 0 mm | - | 113 W/m² | - |
| 1778000776 | 17.22° C | 78% | 1014 hPa | 0 mm | - | 39 W/m² | - |
| 1778000472 | 17.78° C | 75% | 1013.9 hPa | 0 mm | - | 38 W/m² | - |
| 1778000167 | 17.78° C | 75% | 1014.2 hPa | 0 mm | - | 99 W/m² | - |
| 1777999863 | 18.33° C | 74% | 1014 hPa | 0 mm | - | 237 W/m² | - |
| 1777999559 | 18.33° C | 73% | 1014.1 hPa | 0 mm | - | 1110 W/m² | - |
| 1777999257 | 17.78° C | 76% | 1014 hPa | 0 mm | - | 353 W/m² | - |
* Rain latest hour (hover to see other rain measurements)
** Current wind speed in m/s (hover to see current wind gust speed)